Station Historical Data
Daily Summary for May 6, 2012 Units:  English    Metric   Both
« Previous Day
Next Day »
Daily Weekly Monthly Yearly Custom
  High: Low: Average:
Temperature: 85.6 °F 65.4 °F 72.8 °F
Dew Point: 70.4 °F 62.2 °F 65.8 °F
Humidity: 93% 49% 80%
Wind Speed: 14.0mph 0.0mph 2.4mph
Wind Gust: 16.0mph - -
Wind- - South
Pressure: 29.95 in 29.84 in -
Precipitation: 0.01 in    
Historical Graphs
 
 
Tabular Data for May 6, 2012
Time Temperature Dew Point Pressure Wind Wind Speed Wind Gust Humidity Rainfall Rate (Hourly) Conditions
00:00 71.6 °F 68.8 °F 29.90 in Calm     91% 0.00 in
00:01 71.5 °F 68.7 °F 29.90 in Calm     91% 0.00 in
00:06 71.3 °F 68.9 °F 29.90 in Calm     92% 0.00 in
00:11 71.2 °F 68.8 °F 29.90 in Calm     92% 0.00 in
00:16 71.2 °F 68.8 °F 29.90 in Calm     92% 0.00 in
00:21 71.2 °F 68.8 °F 29.90 in Calm     92% 0.00 in
00:26 71.2 °F 68.8 °F 29.90 in Calm     92% 0.00 in
00:31 71.1 °F 68.7 °F 29.90 in Calm     92% 0.00 in
00:36 71.0 °F 68.6 °F 29.90 in Calm     92% 0.00 in
00:41 70.8 °F 68.4 °F 29.90 in Calm     92% 0.00 in
00:46 70.7 °F 68.3 °F 29.90 in Calm     92% 0.00 in
00:51 70.9 °F 68.5 °F 29.90 in Calm     92% 0.00 in
00:56 70.8 °F 68.4 °F 29.90 in Calm     92% 0.00 in
01:01 70.8 °F 68.4 °F 29.90 in Calm     92% 0.00 in
01:06 70.9 °F 68.5 °F 29.90 in Calm     92% 0.00 in
01:11 71.0 °F 68.6 °F 29.90 in Calm     92% 0.00 in
01:16 71.0 °F 68.6 °F 29.90 in Calm     92% 0.00 in
01:21 71.0 °F 68.6 °F 29.90 in NNE 1.0 mph 1.0 mph 92% 0.00 in
01:26 71.2 °F 68.8 °F 29.89 in Calm     92% 0.00 in
01:31 71.4 °F 69.0 °F 29.89 in Calm     92% 0.00 in
01:36 71.6 °F 69.2 °F 29.89 in Calm     92% 0.00 in
01:41 71.9 °F 69.4 °F 29.89 in Calm   1.0 mph 92% 0.00 in
01:47 72.0 °F 69.2 °F 29.89 in Calm     91% 0.00 in
01:52 72.0 °F 69.2 °F 29.89 in Calm     91% 0.00 in
01:57 71.8 °F 69.0 °F 29.89 in Calm     91% 0.00 in
02:02 71.5 °F 68.7 °F 29.89 in Calm     91% 0.00 in
02:07 71.2 °F 68.4 °F 29.89 in Calm     91% 0.00 in
02:12 71.0 °F 68.6 °F 29.89 in Calm     92% 0.00 in
02:17 70.8 °F 68.4 °F 29.89 in Calm     92% 0.00 in
02:22 70.6 °F 68.2 °F 29.89 in Calm     92% 0.00 in
02:27 70.6 °F 68.2 °F 29.89 in Calm     92% 0.00 in
02:32 70.8 °F 68.4 °F 29.89 in Calm     92% 0.00 in
02:37 70.7 °F 68.3 °F 29.89 in Calm     92% 0.00 in
02:42 70.7 °F 68.3 °F 29.89 in Calm     92% 0.00 in
02:47 70.7 °F 68.3 °F 29.89 in Calm     92% 0.00 in
02:52 70.7 °F 68.3 °F 29.89 in Calm     92% 0.00 in
02:57 70.6 °F 68.2 °F 29.89 in Calm     92% 0.00 in
03:02 70.5 °F 68.1 °F 29.89 in Calm     92% 0.00 in
03:07 70.3 °F 67.9 °F 29.88 in Calm     92% 0.00 in
03:12 70.1 °F 67.7 °F 29.88 in Calm     92% 0.00 in
03:17 70.2 °F 67.8 °F 29.88 in Calm     92% 0.00 in
03:22 70.0 °F 67.6 °F 29.88 in Calm     92% 0.00 in
03:27 70.0 °F 67.9 °F 29.88 in Calm     93% 0.00 in
03:32 69.6 °F 67.2 °F 29.88 in Calm     92% 0.00 in
03:37 69.4 °F 67.3 °F 29.88 in Calm     93% 0.00 in
03:42 69.5 °F 67.4 °F 29.88 in Calm     93% 0.00 in
03:47 69.6 °F 67.5 °F 29.88 in Calm     93% 0.00 in
03:52 69.5 °F 67.4 °F 29.88 in Calm     93% 0.00 in
03:57 69.4 °F 67.3 °F 29.88 in Calm     93% 0.00 in
04:02 69.4 °F 67.3 °F 29.88 in Calm     93% 0.00 in
04:07 69.2 °F 67.1 °F 29.88 in Calm     93% 0.00 in
04:12 69.1 °F 67.0 °F 29.88 in Calm     93% 0.00 in
04:17 69.0 °F 66.9 °F 29.89 in Calm     93% 0.00 in
04:22 69.0 °F 66.9 °F 29.89 in Calm     93% 0.00 in
04:27 69.0 °F 66.9 °F 29.89 in Calm     93% 0.00 in
04:32 69.1 °F 67.0 °F 29.89 in Calm     93% 0.00 in
04:37 69.2 °F 67.1 °F 29.89 in Calm     93% 0.00 in
04:42 69.4 °F 67.3 °F 29.89 in North 1.0 mph 1.0 mph 93% 0.00 in
04:47 69.5 °F 67.4 °F 29.89 in North 1.0 mph 1.0 mph 93% 0.00 in
04:52 69.4 °F 67.3 °F 29.89 in North 1.0 mph 1.0 mph 93% 0.00 in
04:57 69.5 °F 67.4 °F 29.88 in North 1.0 mph 2.0 mph 93% 0.00 in
05:02 69.7 °F 67.6 °F 29.89 in North 1.0 mph 1.0 mph 93% 0.00 in
05:07 68.9 °F 66.8 °F 29.90 in NNW 11.0 mph 11.0 mph 93% 0.00 in
05:13 69.0 °F 66.9 °F 29.91 in NNW 9.0 mph 16.0 mph 93% 0.00 in
05:18 69.4 °F 67.0 °F 29.91 in WNW 14.0 mph 14.0 mph 92% 0.00 in
05:23 69.4 °F 66.3 °F 29.91 in NNW 8.0 mph 12.0 mph 90% 0.00 in
05:28 69.4 °F 65.7 °F 29.91 in NW 8.0 mph 12.0 mph 88% 0.00 in
05:33 69.4 °F 64.7 °F 29.91 in NNW 9.0 mph 12.0 mph 85% 0.00 in
05:38 69.5 °F 64.1 °F 29.91 in NW 9.0 mph 16.0 mph 83% 0.00 in
05:43 69.3 °F 63.6 °F 29.90 in NW 7.0 mph 13.0 mph 82% 0.00 in
05:48 69.2 °F 63.5 °F 29.90 in NNW 12.0 mph 12.0 mph 82% 0.00 in
05:53 69.0 °F 63.3 °F 29.90 in NW 8.0 mph 10.0 mph 82% 0.00 in
05:58 68.8 °F 63.1 °F 29.90 in NNW 5.0 mph 9.0 mph 82% 0.00 in
06:03 68.6 °F 62.9 °F 29.90 in North 6.0 mph 7.0 mph 82% 0.00 in
06:08 68.3 °F 62.9 °F 29.91 in North 5.0 mph 9.0 mph 83% 0.00 in
06:13 68.2 °F 63.2 °F 29.91 in North 9.0 mph 11.0 mph 84% 0.00 in
06:18 68.0 °F 63.0 °F 29.92 in NNW 6.0 mph 9.0 mph 84% 0.00 in
06:23 67.8 °F 63.1 °F 29.92 in NE 4.0 mph 11.0 mph 85% 0.00 in
06:28 67.5 °F 62.8 °F 29.91 in NNW 4.0 mph 8.0 mph 85% 0.00 in
06:33 67.2 °F 62.9 °F 29.92 in North 2.0 mph 5.0 mph 86% 0.00 in
06:38 67.0 °F 63.0 °F 29.91 in North 3.0 mph 6.0 mph 87% 0.00 in
06:43 66.7 °F 62.7 °F 29.92 in NNE 4.0 mph 5.0 mph 87% 0.00 in
06:48 66.6 °F 62.6 °F 29.92 in NNE 3.0 mph 6.0 mph 87% 0.00 in
06:53 66.5 °F 62.8 °F 29.92 in NE 4.0 mph 4.0 mph 88% 0.00 in
06:58 66.3 °F 62.6 °F 29.92 in NNW 2.0 mph 6.0 mph 88% 0.00 in
07:03 66.2 °F 62.5 °F 29.93 in North 2.0 mph 4.0 mph 88% 0.00 in
07:08 66.0 °F 62.7 °F 29.93 in North 2.0 mph 4.0 mph 89% 0.00 in
07:13 65.9 °F 62.6 °F 29.93 in NNW 1.0 mph 3.0 mph 89% 0.00 in
07:18 65.7 °F 62.7 °F 29.92 in Calm   3.0 mph 90% 0.00 in
07:23 65.6 °F 62.6 °F 29.92 in NW 1.0 mph 2.0 mph 90% 0.00 in
07:28 65.5 °F 62.5 °F 29.91 in NW 1.0 mph 1.0 mph 90% 0.00 in
07:34 65.4 °F 62.4 °F 29.91 in ESE 2.0 mph 2.0 mph 90% 0.00 in
07:39 65.4 °F 62.4 °F 29.91 in Calm   2.0 mph 90% 0.00 in
07:44 65.4 °F 62.4 °F 29.91 in North 1.0 mph 1.0 mph 90% 0.00 in
07:49 65.4 °F 62.4 °F 29.91 in Calm   2.0 mph 90% 0.00 in
07:54 65.4 °F 62.4 °F 29.91 in Calm   1.0 mph 90% 0.00 in
07:59 65.4 °F 62.4 °F 29.91 in ESE 2.0 mph 2.0 mph 90% 0.00 in
08:04 65.6 °F 62.6 °F 29.91 in ENE 1.0 mph 2.0 mph 90% 0.00 in
08:09 65.7 °F 62.4 °F 29.90 in ENE 2.0 mph 3.0 mph 89% 0.00 in
08:14 65.8 °F 62.5 °F 29.90 in NE 2.0 mph 3.0 mph 89% 0.00 in
08:19 65.9 °F 62.2 °F 29.89 in East 3.0 mph 3.0 mph 88% 0.00 in
08:24 66.3 °F 62.3 °F 29.88 in ENE 5.0 mph 6.0 mph 87% 0.00 in
08:29 66.4 °F 62.4 °F 29.88 in SE 5.0 mph 9.0 mph 87% 0.00 in
08:34 66.2 °F 62.5 °F 29.90 in SSW 1.0 mph 4.0 mph 88% 0.00 in
08:39 66.1 °F 62.5 °F 29.91 in West 2.0 mph 3.0 mph 88% 0.00 in
08:44 66.2 °F 62.5 °F 29.92 in West 3.0 mph 16.0 mph 88% 0.00 in
08:49 66.4 °F 62.4 °F 29.93 in SW 5.0 mph 5.0 mph 87% 0.00 in
08:54 66.2 °F 62.5 °F 29.93 in SSE 2.0 mph 12.0 mph 88% 0.00 in
08:59 65.9 °F 62.6 °F 29.93 in SSW 2.0 mph 5.0 mph 89% 0.00 in
09:04 65.9 °F 62.6 °F 29.93 in Calm   3.0 mph 89% 0.00 in
09:09 66.0 °F 62.7 °F 29.93 in ESE 6.0 mph 6.0 mph 89% 0.00 in
09:14 66.0 °F 63.0 °F 29.93 in SE 4.0 mph 7.0 mph 90% 0.00 in
09:19 66.2 °F 62.9 °F 29.95 in WNW 4.0 mph 5.0 mph 89% 0.00 in
09:24 66.3 °F 63.0 °F 29.94 in ESE 3.0 mph 3.0 mph 89% 0.00 in
09:29 66.5 °F 63.2 °F 29.94 in Calm   2.0 mph 89% 0.00 in
09:34 66.7 °F 63.4 °F 29.94 in ENE 2.0 mph 2.0 mph 89% 0.00 in
09:39 67.0 °F 63.7 °F 29.94 in Calm   1.0 mph 89% 0.00 in
09:44 67.2 °F 63.8 °F 29.94 in ENE 3.0 mph 3.0 mph 89% 0.00 in
09:49 67.3 °F 64.0 °F 29.94 in Calm   3.0 mph 89% 0.00 in
09:54 67.7 °F 63.7 °F 29.94 in NE 3.0 mph 4.0 mph 87% 0.00 in
09:59 68.0 °F 63.3 °F 29.94 in ENE 4.0 mph 5.0 mph 85% 0.00 in
10:04 68.3 °F 63.6 °F 29.94 in ENE 3.0 mph 5.0 mph 85% 0.00 in
10:09 68.4 °F 63.7 °F 29.94 in East 3.0 mph 7.0 mph 85% 0.00 in
10:14 68.5 °F 63.5 °F 29.94 in ENE 6.0 mph 7.0 mph 84% 0.00 in
10:19 68.5 °F 63.5 °F 29.94 in ENE 4.0 mph 8.0 mph 84% 0.00 in
10:24 68.6 °F 63.9 °F 29.94 in NE 3.0 mph 6.0 mph 85% 0.00 in
10:29 68.8 °F 63.8 °F 29.94 in ESE 3.0 mph 8.0 mph 84% 0.00 in
10:34 68.9 °F 63.9 °F 29.94 in SE 4.0 mph 8.0 mph 84% 0.00 in
10:39 69.2 °F 64.5 °F 29.94 in ESE 5.0 mph 5.0 mph 85% 0.00 in
10:44 69.6 °F 64.6 °F 29.94 in SE 3.0 mph 7.0 mph 84% 0.00 in
10:49 69.9 °F 64.5 °F 29.94 in SE 5.0 mph 5.0 mph 83% 0.00 in
10:54 70.1 °F 64.4 °F 29.94 in SE 3.0 mph 6.0 mph 82% 0.00 in
11:00 70.6 °F 64.8 °F 29.94 in SE 4.0 mph 7.0 mph 82% 0.00 in
11:05 71.1 °F 65.3 °F 29.94 in SE 5.0 mph 5.0 mph 82% 0.00 in
11:10 71.4 °F 64.9 °F 29.94 in South 2.0 mph 6.0 mph 80% 0.00 in
11:15 71.6 °F 65.5 °F 29.94 in ESE 4.0 mph 6.0 mph 81% 0.00 in
11:20 72.1 °F 65.9 °F 29.94 in ESE 3.0 mph 7.0 mph 81% 0.00 in
11:25 72.5 °F 65.3 °F 29.94 in ESE 3.0 mph 6.0 mph 78% 0.00 in
11:30 73.1 °F 65.5 °F 29.94 in SSW 4.0 mph 6.0 mph 77% 0.00 in
11:35 73.2 °F 65.2 °F 29.94 in ESE 6.0 mph 7.0 mph 76% 0.00 in
11:40 73.4 °F 65.8 °F 29.94 in SE 6.0 mph 7.0 mph 77% 0.00 in
11:45 73.5 °F 65.9 °F 29.94 in SE 6.0 mph 8.0 mph 77% 0.00 in
11:51 73.6 °F 65.6 °F 29.94 in SE 7.0 mph 8.0 mph 76% 0.00 in
11:56 73.8 °F 65.8 °F 29.94 in SSW 3.0 mph 9.0 mph 76% 0.00 in
12:01 74.2 °F 65.4 °F 29.94 in SE 7.0 mph 9.0 mph 74% 0.00 in
12:06 74.8 °F 65.2 °F 29.94 in South 4.0 mph 8.0 mph 72% 0.00 in
12:11 75.5 °F 65.8 °F 29.94 in SE 5.0 mph 7.0 mph 72% 0.00 in
12:16 76.1 °F 65.6 °F 29.94 in Calm   5.0 mph 70% 0.00 in
12:21 76.5 °F 65.6 °F 29.94 in SE 1.0 mph 7.0 mph 69% 0.00 in
12:26 76.9 °F 65.5 °F 29.94 in SE 4.0 mph 6.0 mph 68% 0.00 in
12:31 77.1 °F 65.7 °F 29.93 in ESE 4.0 mph 5.0 mph 68% 0.00 in
12:36 77.6 °F 66.2 °F 29.93 in SSE 3.0 mph 6.0 mph 68% 0.00 in
12:41 78.2 °F 66.8 °F 29.93 in SE 7.0 mph 9.0 mph 68% 0.00 in
12:46 78.2 °F 66.4 °F 29.93 in South 4.0 mph 7.0 mph 67% 0.00 in
12:51 78.8 °F 66.1 °F 29.93 in South 3.0 mph 6.0 mph 65% 0.00 in
12:56 79.2 °F 66.9 °F 29.92 in SSE 1.0 mph 6.0 mph 66% 0.00 in
13:01 79.7 °F 66.5 °F 29.92 in SSE 8.0 mph 8.0 mph 64% 0.00 in
13:06 79.8 °F 67.9 °F 29.92 in SE 2.0 mph 5.0 mph 67% 0.00 in
13:11 80.2 °F 67.4 °F 29.92 in ESE 3.0 mph 5.0 mph 65% 0.00 in
13:16 80.6 °F 68.2 °F 29.92 in SSE 4.0 mph 5.0 mph 66% 0.00 in
13:21 80.6 °F 66.4 °F 29.92 in WSW 3.0 mph 7.0 mph 62% 0.00 in
13:26 81.1 °F 65.9 °F 29.92 in South 3.0 mph 8.0 mph 60% 0.00 in
13:31 81.6 °F 66.4 °F 29.92 in South 4.0 mph 7.0 mph 60% 0.00 in
13:36 82.0 °F 66.8 °F 29.92 in SSW 3.0 mph 3.0 mph 60% 0.00 in
13:41 82.4 °F 64.6 °F 29.92 in ESE 5.0 mph 9.0 mph 55% 0.00 in
13:47 82.3 °F 66.1 °F 29.92 in SE 2.0 mph 5.0 mph 58% 0.00 in
13:52 82.8 °F 63.9 °F 29.91 in SE 1.0 mph 2.0 mph 53% 0.00 in
13:57 83.3 °F 65.5 °F 29.91 in Calm   4.0 mph 55% 0.00 in
14:02 84.1 °F 64.6 °F 29.91 in ESE 1.0 mph 2.0 mph 52% 0.00 in
14:04 84.3 °F 66.4 °F 29.91 in WSW 3.0 mph 5.0 mph 55% 0.00 in
14:09 84.2 °F 65.2 °F 29.91 in West 7.0 mph 7.0 mph 53% 0.00 in
14:14 83.5 °F 64.0 °F 29.91 in NW 3.0 mph 6.0 mph 52% 0.00 in
14:19 83.6 °F 65.7 °F 29.91 in WSW 1.0 mph 3.0 mph 55% 0.00 in
14:24 84.4 °F 65.9 °F 29.91 in WNW 4.0 mph 4.0 mph 54% 0.00 in
14:29 84.6 °F 65.6 °F 29.91 in SSW 3.0 mph 5.0 mph 53% 0.00 in
14:34 84.7 °F 63.5 °F 29.90 in NNW 3.0 mph 5.0 mph 49% 0.00 in
14:39 84.7 °F 63.5 °F 29.90 in SSW 1.0 mph 4.0 mph 49% 0.00 in
14:44 85.1 °F 63.8 °F 29.90 in West 2.0 mph 4.0 mph 49% 0.00 in
14:49 85.5 °F 64.2 °F 29.90 in West 4.0 mph 4.0 mph 49% 0.00 in
14:54 85.1 °F 63.8 °F 29.90 in SSW 2.0 mph 4.0 mph 49% 0.00 in
14:59 85.0 °F 64.3 °F 29.89 in West 1.0 mph 4.0 mph 50% 0.00 in
15:04 85.6 °F 64.3 °F 29.89 in WNW 4.0 mph 4.0 mph 49% 0.00 in
15:09 85.2 °F 64.5 °F 29.89 in NNE 4.0 mph 5.0 mph 50% 0.00 in
15:10 85.1 °F 64.4 °F 29.89 in North 3.0 mph 5.0 mph 50% 0.00 in
15:15 84.8 °F 64.7 °F 29.89 in ESE 1.0 mph 3.0 mph 51% 0.00 in
15:20 84.7 °F 65.1 °F 29.89 in WSW 1.0 mph 2.0 mph 52% 0.00 in
15:21 84.8 °F 65.2 °F 29.89 in Calm   2.0 mph 52% 0.00 in
15:26 84.9 °F 64.8 °F 29.89 in WNW 4.0 mph 4.0 mph 51% 0.00 in
15:31 84.3 °F 65.3 °F 29.89 in West 3.0 mph 6.0 mph 53% 0.00 in
15:36 83.8 °F 64.9 °F 29.89 in WNW 5.0 mph 7.0 mph 53% 0.00 in
15:41 83.2 °F 65.9 °F 29.89 in WNW 3.0 mph 7.0 mph 56% 0.00 in
15:46 82.6 °F 65.8 °F 29.89 in WNW 4.0 mph 9.0 mph 57% 0.00 in
15:51 82.0 °F 65.8 °F 29.89 in WNW 11.0 mph 15.0 mph 58% 0.00 in
15:56 80.8 °F 65.6 °F 29.89 in NW 11.0 mph 13.0 mph 60% 0.00 in
16:01 79.8 °F 65.2 °F 29.89 in WNW 7.0 mph 9.0 mph 61% 0.00 in
16:06 79.0 °F 63.9 °F 29.89 in WNW 12.0 mph 15.0 mph 60% 0.00 in
16:11 78.3 °F 63.8 °F 29.89 in WNW 8.0 mph 10.0 mph 61% 0.00 in
16:16 77.9 °F 63.8 °F 29.89 in West 4.0 mph 7.0 mph 62% 0.00 in
16:21 77.3 °F 62.8 °F 29.89 in West 5.0 mph 13.0 mph 61% 0.00 in
16:26 75.3 °F 63.2 °F 29.89 in SSW 4.0 mph 10.0 mph 66% 0.00 in
16:31 74.7 °F 63.0 °F 29.89 in SW 7.0 mph 11.0 mph 67% 0.00 in
16:37 74.3 °F 63.5 °F 29.89 in West 7.0 mph 11.0 mph 69% 0.00 in
16:42 74.3 °F 63.5 °F 29.89 in West 5.0 mph 7.0 mph 69% 0.00 in
16:47 74.0 °F 64.0 °F 29.89 in WSW 3.0 mph 6.0 mph 71% 0.00 in
16:52 73.7 °F 64.5 °F 29.89 in WSW 5.0 mph 6.0 mph 73% 0.00 in
16:57 73.5 °F 64.3 °F 29.88 in SW 3.0 mph 5.0 mph 73% 0.00 in
17:02 73.7 °F 64.1 °F 29.88 in SW 3.0 mph 6.0 mph 72% 0.00 in
17:07 73.9 °F 64.3 °F 29.88 in SSW 3.0 mph 4.0 mph 72% 0.00 in
17:12 73.7 °F 64.9 °F 29.88 in SW 4.0 mph 5.0 mph 74% 0.00 in
17:17 73.1 °F 65.5 °F 29.88 in West 2.0 mph 4.0 mph 77% 0.00 in
17:22 72.7 °F 65.4 °F 29.87 in SSW 2.0 mph 4.0 mph 78% 0.00 in
17:27 72.4 °F 66.2 °F 29.86 in SSW 3.0 mph 5.0 mph 81% 0.00 in
17:32 72.2 °F 65.7 °F 29.86 in WSW 3.0 mph 3.0 mph 80% 0.00 in
17:38 72.4 °F 66.2 °F 29.87 in WSW 1.0 mph 2.0 mph 81% 0.00 in
17:43 72.6 °F 67.2 °F 29.86 in Calm   2.0 mph 83% 0.00 in
17:48 72.8 °F 67.7 °F 29.86 in WSW 1.0 mph 1.0 mph 84% 0.00 in
17:53 73.2 °F 67.4 °F 29.86 in WSW 1.0 mph 1.0 mph 82% 0.00 in
17:58 73.6 °F 67.8 °F 29.85 in Calm   1.0 mph 82% 0.00 in
18:03 74.0 °F 67.8 °F 29.85 in SW 1.0 mph 1.0 mph 81% 0.00 in
18:08 74.4 °F 69.3 °F 29.85 in West 1.0 mph 2.0 mph 84% 0.00 in
18:13 74.3 °F 69.5 °F 29.85 in Calm   1.0 mph 85% 0.00 in
18:18 74.4 °F 69.3 °F 29.85 in NNW 1.0 mph 1.0 mph 84% 0.00 in
18:23 74.4 °F 68.2 °F 29.85 in Calm   1.0 mph 81% 0.00 in
18:28 74.5 °F 67.9 °F 29.85 in Calm   1.0 mph 80% 0.00 in
18:33 74.7 °F 67.8 °F 29.85 in Calm   1.0 mph 79% 0.00 in
18:38 75.0 °F 68.4 °F 29.85 in Calm     80% 0.00 in
18:43 75.5 °F 68.2 °F 29.84 in Calm     78% 0.00 in
18:48 76.2 °F 68.1 °F 29.85 in Calm     76% 0.00 in
18:53 76.7 °F 68.6 °F 29.85 in Calm     76% 0.00 in
18:59 77.5 °F 67.4 °F 29.85 in Calm     71% 0.00 in
19:04 77.7 °F 67.1 °F 29.85 in Calm     70% 0.00 in
19:09 77.6 °F 67.9 °F 29.84 in WSW 1.0 mph 1.0 mph 72% 0.00 in
19:14 77.3 °F 69.2 °F 29.84 in Calm   1.0 mph 76% 0.00 in
19:19 77.1 °F 69.0 °F 29.84 in Calm   1.0 mph 76% 0.00 in
19:24 77.0 °F 67.7 °F 29.85 in Calm   1.0 mph 73% 0.00 in
19:29 77.7 °F 68.8 °F 29.84 in Calm     74% 0.00 in
19:34 78.3 °F 67.3 °F 29.84 in Calm     69% 0.00 in
19:39 78.5 °F 69.9 °F 29.84 in Calm     75% 0.00 in
19:44 78.2 °F 69.2 °F 29.85 in ENE 1.0 mph 1.0 mph 74% 0.00 in
19:49 77.5 °F 69.7 °F 29.85 in NE 2.0 mph 2.0 mph 77% 0.00 in
19:54 76.9 °F 68.8 °F 29.85 in NNE 1.0 mph 2.0 mph 76% 0.00 in
20:00 76.7 °F 68.9 °F 29.85 in NNE 1.0 mph 1.0 mph 77% 0.00 in
20:04 76.7 °F 69.7 °F 29.85 in North 2.0 mph 2.0 mph 79% 0.00 in
20:10 76.4 °F 70.1 °F 29.86 in North 1.0 mph 2.0 mph 81% 0.00 in
20:15 75.9 °F 70.4 °F 29.85 in North 1.0 mph 1.0 mph 83% 0.00 in
20:20 75.3 °F 70.1 °F 29.86 in North 1.0 mph 1.0 mph 84% 0.00 in
20:21 75.2 °F 69.7 °F 29.86 in North 1.0 mph 1.0 mph 83% 0.00 in
20:26 74.6 °F 69.4 °F 29.86 in NNE 1.0 mph 2.0 mph 84% 0.00 in
20:31 73.9 °F 67.3 °F 29.86 in NNE 2.0 mph 2.0 mph 80% 0.00 in
20:36 73.7 °F 67.9 °F 29.86 in NNE 2.0 mph 2.0 mph 82% 0.00 in
20:41 73.4 °F 66.9 °F 29.86 in NE 3.0 mph 3.0 mph 80% 0.00 in
20:46 73.3 °F 66.8 °F 29.86 in NNE 2.0 mph 2.0 mph 80% 0.00 in
20:51 73.2 °F 66.7 °F 29.86 in NNE 1.0 mph 2.0 mph 80% 0.00 in
20:56 72.9 °F 66.7 °F 29.85 in Calm     81% 0.00 in
21:01 72.5 °F 66.7 °F 29.86 in NNE 1.0 mph 1.0 mph 82% 0.00 in
21:06 72.3 °F 66.8 °F 29.86 in NE 3.0 mph 3.0 mph 83% 0.00 in
21:11 71.9 °F 66.5 °F 29.86 in NE 2.0 mph 2.0 mph 83% 0.00 in
21:16 72.2 °F 66.8 °F 29.87 in NE 3.0 mph 5.0 mph 83% 0.00 in
21:21 72.7 °F 66.9 °F 29.87 in NNE 3.0 mph 6.0 mph 82% 0.00 in
21:26 72.8 °F 67.0 °F 29.88 in NE 2.0 mph 5.0 mph 82% 0.00 in
21:32 72.8 °F 67.0 °F 29.88 in NE 1.0 mph 3.0 mph 82% 0.00 in
21:37 72.7 °F 66.9 °F 29.88 in ENE 1.0 mph 3.0 mph 82% 0.00 in
21:42 72.7 °F 66.5 °F 29.88 in NE 4.0 mph 4.0 mph 81% 0.00 in
21:47 72.7 °F 66.2 °F 29.88 in ENE 2.0 mph 5.0 mph 80% 0.00 in
21:52 72.8 °F 65.9 °F 29.88 in NE 4.0 mph 5.0 mph 79% 0.00 in
21:57 72.8 °F 65.6 °F 29.88 in ENE 2.0 mph 3.0 mph 78% 0.00 in
22:02 72.7 °F 65.4 °F 29.88 in ENE 3.0 mph 3.0 mph 78% 0.00 in
22:07 72.6 °F 65.0 °F 29.88 in NNE 6.0 mph 10.0 mph 77% 0.00 in
22:12 72.8 °F 65.2 °F 29.88 in NE 3.0 mph 8.0 mph 77% 0.00 in
22:17 72.9 °F 65.3 °F 29.88 in NNE 3.0 mph 8.0 mph 77% 0.00 in
22:22 72.5 °F 65.3 °F 29.89 in NNE 3.0 mph 5.0 mph 78% 0.00 in
22:27 72.2 °F 65.0 °F 29.89 in ENE 1.0 mph 5.0 mph 78% 0.00 in
22:32 72.0 °F 64.8 °F 29.88 in NE 2.0 mph 4.0 mph 78% 0.00 in
22:37 72.0 °F 64.8 °F 29.89 in NE 2.0 mph 5.0 mph 78% 0.00 in
22:42 71.8 °F 64.6 °F 29.89 in ENE 2.0 mph 3.0 mph 78% 0.00 in
22:47 71.9 °F 64.7 °F 29.89 in ENE 1.0 mph 4.0 mph 78% 0.00 in
22:52 71.8 °F 64.6 °F 29.89 in SE 2.0 mph 3.0 mph 78% 0.00 in
22:57 71.1 °F 64.6 °F 29.89 in SE 1.0 mph 4.0 mph 80% 0.00 in
23:02 70.5 °F 64.4 °F 29.89 in ESE 2.0 mph 3.0 mph 81% 0.00 in
23:07 70.4 °F 64.3 °F 29.89 in Calm   2.0 mph 81% 0.00 in
23:12 70.1 °F 64.0 °F 29.89 in Calm     81% 0.00 in
23:17 69.7 °F 64.0 °F 29.89 in Calm     82% 0.00 in
23:22 69.4 °F 63.7 °F 29.89 in Calm     82% 0.00 in
23:27 69.0 °F 63.6 °F 29.89 in SE 1.0 mph 3.0 mph 83% 0.00 in
23:32 68.8 °F 63.4 °F 29.89 in Calm     83% 0.00 in
23:37 68.9 °F 63.2 °F 29.89 in Calm   3.0 mph 82% 0.00 in
23:42 68.9 °F 63.2 °F 29.89 in ESE 2.0 mph 2.0 mph 82% 0.00 in
23:47 69.2 °F 63.1 °F 29.88 in SE 2.0 mph 3.0 mph 81% 0.00 in
23:52 69.1 °F 63.0 °F 29.88 in SSW 2.0 mph 2.0 mph 81% 0.00 in
23:57 69.0 °F 63.3 °F 29.87 in South 2.0 mph 3.0 mph 82% 0.00 in
Compliments of Weather Underground